Pleasant Mount, Pennsylvania
Current Conditions -  °F | °C
As of 4:54 AM on Saturday 25 Oct 2014 (Local Time) from KAVP Reporting Station
Clear Clear  
Wind Chill: 39°   Ceiling: Unl
Heat Index: 39°   Visibility: 10mi
Dew Point: 32°   Wind: 3mph
Humidity: 76%   Direction: NA
Pressure: 29.9"   Gusts: NA
Location:  41.74°N, 75.43°W
Report Text: KAVP 250854Z AUTO VRB03KT 10SM CLR 04/00 A2990 RMK AO2 SLP126 T00390000 58003
Loading
Personal Weather Stations






























Interactive Weather Map
Tropical Storm Tracking
New forecast layout! Learn more

10-Day Weather Forecast

Advertisements
Track Severe Weather on mobile